Airfield :
LOGIN :

Register | Disclaimer

   EN    FR    IT 

 










Legend :    VFR   Marginal VFR   IFR   Intensive IFR   Very Intensive IFR
Visi :
Ceiling :
>= 8 km
>= 3000ft
5 to 8 km
1000 to 3000 ft
1500m to 5 km
500 to 1000 ft
800 to 1500m
200 to 500 ft
< 800m
< 200 ft
Symbols :   Thunderstorms  Fog  Heavy snow  Heavy precipitations  Wind > 20 kt
SIGMETs :     Misc.  Thunderstorms  Icing  Turbulence  Mountain Waves  Volcanic Ashes







- Airport Elevation : 17 ft
- IATA code : GRQ


EHGG - Groningen Eelde

CURRENT METAR :
  • 240525Z AUTO 19008KT 9999 FEW041 07/06 Q1005 NOSIG

EXPIRED METARs :
  • 240455Z AUTO 20005KT 9999 FEW040/// SCT048/// 07/06 Q1005 NOSIG
  • 240425Z AUTO 21004KT 180V240 9999 FEW047 07/06 Q1005
  • 240355Z AUTO 20005KT 9999 SCT028 SCT034 BKN040 07/06 Q1006
  • 240325Z AUTO 21007KT 9999 SCT030 SCT036 BKN042 07/06 Q1006
  • 240255Z AUTO 20005KT 9999 FEW032 07/06 Q1005

TAF TAF EHGG
Valid from the 24 at 06:00 until the 25 at 12:00 UTC


240448Z 2406/2512 23008KT 9999 BKN040
TEMPO 2406/2410 7000 -RA -SHRA FEW020TCU BKN025
PROB30
TEMPO 2410/2418 7000 -SHRA -RA BKN014 FEW020CB
BECMG 2421/2424 4000 BR MIFG NSC
TEMPO 2423/2510 1200 BCFG
PROB40
TEMPO 2500/2509 0500 FG VV001
BECMG 2509/2512 9999 NSW SCT015
PROB40
TEMPO 2510/2512 6000 -SHRA FEW015CB BKN020
No reported NOTAMs for that airfield.



MET'MAP, your aeronautical weather chart ! - Copyright ORBIFLY December 2007 - Disclaimer

ORBIFLY MET'MAP TEAM :

Programming & Development : Alexandra Zaïnal
Concept & Development : Baudouin d'Aumeries
Co-Development & Prog : Marc-Olivier Méhu
Technical & hardware support : Manuel Goepfert

Contact : metmap@orbifly.com




SOURCES & CREDITS :

   NOAA